Home > Products > Valid Products > TAF

000
FTUS43 KPAH 181100
TAFPAH
TAF
KPAH 181139Z 1812/1912 00000KT 6SM HZ OVC035
     FM181500 06006KT P6SM BKN040
     FM190100 05003KT P6SM SCT045=



000
FTUS43 KPAH 181100
TAFCGI
TAF
KCGI 181139Z 1812/1912 00000KT 3SM BR OVC023
     FM181600 07006KT P6SM OVC035
     FM190100 06003KT P6SM SCT045
     FM190700 00000KT 4SM BR SKC
      TEMPO 1908/1912 1SM BR=



000
FTUS43 KPAH 181100
TAFEVV
TAF
KEVV 181139Z 1812/1912 04006KT P6SM OVC050
     FM181500 06006KT P6SM FEW035 BKN080
     FM190000 05003KT P6SM SKC=



000
FTUS43 KPAH 181000 AAA
TAFEVV
TAF AMD
KEVV 181011Z 1810/1906 05005KT P6SM OVC080
     FM181400 06007KT P6SM SCT040 BKN070=



000
FTUS43 KPAH 181000 AAA
TAFPAH
TAF AMD
KPAH 181009Z 1810/1906 00000KT 6SM HZ OVC040
      TEMPO 1810/1813 3SM BR
     FM181400 07004KT P6SM BKN035
     FM181800 06006KT P6SM BKN045=



000
FTUS43 KPAH 180600 AAA
TAFPAH
TAF AMD
KPAH 180612Z 1806/1906 VRB02KT 5SM HZ BKN050
     FM180800 VRB02KT 5SM BR BKN035
      TEMPO 1808/1812 2SM BR
     FM181400 07004KT P6SM BKN035
     FM181800 06006KT P6SM BKN045=



000
FTUS43 KPAH 180500
TAFCGI
TAF
KCGI 180520Z 1806/1906 VRB02KT 4SM BR BKN040
      TEMPO 1806/1809 1SM BR SCT030
     FM180900 VRB02KT 1SM BR BKN030
      TEMPO 1809/1812 1/2SM FG BKN002
     FM181400 07005KT P6SM BKN025
     FM181800 06006KT P6SM BKN035=



000
FTUS43 KPAH 180500
TAFEVV
TAF
KEVV 180520Z 1806/1906 04003KT P6SM BKN060
      TEMPO 1808/1812 5SM BR
     FM181400 06007KT P6SM SCT040 BKN070=



000
FTUS43 KPAH 180500
TAFPAH
TAF
KPAH 180520Z 1806/1906 VRB02KT 6SM BR BKN050
     FM180800 VRB02KT 5SM BR BKN035
      TEMPO 1808/1812 2SM BR
     FM181400 07004KT P6SM BKN035
     FM181800 06006KT P6SM BKN045=



000
FTUS43 KPAH 180400 AAC
TAFCGI
TAF AMD
KCGI 180454Z 1805/1824 VRB02KT 4SM BR BKN040
      TEMPO 1805/1809 1SM BR SCT030
     FM180900 VRB02KT 1SM BR BKN030
      TEMPO 1809/1812 1/4SM FG VV001
     FM181400 07005KT P6SM BKN025
     FM181800 06006KT P6SM BKN035=



000
FTUS43 KPAH 180300 AAB
TAFCGI
TAF AMD
KCGI 180358Z 1804/1824 VRB02KT 2SM BR BKN040
      TEMPO 1804/1808 1/2SM FG SCT030
     FM180800 VRB02KT 1SM BR BKN030
      TEMPO 1808/1812 1/4SM FG VV001
     FM181400 07005KT P6SM BKN025
     FM181800 06006KT P6SM BKN035=



000
FTUS43 KPAH 180200 AAA
TAFCGI
TAF AMD
KCGI 180223Z 1802/1824 VRB03KT P6SM SCT030
     FM180800 VRB02KT 4SM BR BKN015
      TEMPO 1808/1812 2SM BR BKN010
     FM181400 07005KT P6SM BKN025
     FM181800 06006KT P6SM BKN035=



000
FTUS43 KPAH 172300 RRA
TAFCGI
TAF
KCGI 172340Z 1800/1824 VRB03KT P6SM BKN030
     FM180800 VRB02KT 4SM BR BKN015
      TEMPO 1808/1812 2SM BR BKN010
     FM181400 07005KT P6SM BKN025
     FM181800 06006KT P6SM BKN035=



000
FTUS43 KPAH 172300 RRA
TAFPAH
TAF
KPAH 172340Z 1800/1824 VRB03KT P6SM BKN040
     FM180800 VRB02KT 5SM BR BKN025
      TEMPO 1808/1812 2SM BR
     FM181400 07004KT P6SM BKN035
     FM181800 06006KT P6SM BKN045=



000
FTUS43 KPAH 172300 RRA
TAFEVV
TAF
KEVV 172340Z 1800/1824 VRB03KT P6SM SCT040
     FM180600 00000KT 4SM BR BKN080
      TEMPO 1808/1812 2SM BR
     FM181400 06007KT P6SM SCT040=



000
FTUS43 KPAH 171700
TAFPAH
TAF
KPAH 171725Z 1718/1818 VRB03KT P6SM OVC070
     FM180500 VRB02KT 5SM BR BKN025
      TEMPO 1808/1812 2SM BR SCT003
     FM181400 07004KT P6SM BKN035=



000
FTUS43 KPAH 171700
TAFCGI
TAF
KCGI 171725Z 1718/1818 VRB04KT P6SM BKN070 OVC200
     FM180800 VRB02KT 3SM BR BKN010
      TEMPO 1808/1812 3/4SM BR BKN004
     FM181400 07004KT P6SM BKN025=



000
FTUS43 KPAH 171700
TAFEVV
TAF
KEVV 171725Z 1718/1818 VRB04KT P6SM BKN035
     FM172000 VRB03KT P6SM SCT040
     FM180600 00000KT 4SM BR BKN080
      TEMPO 1808/1812 2SM BR
     FM181400 06007KT P6SM SCT040=



000
FTUS43 KPAH 171600 AAB
TAFCGI
TAF AMD
KCGI 171600Z 1716/1812 16004KT P6SM VCTS BKN025CB
     FM172200 18003KT P6SM OVC040
     FM180400 VRB02KT 5SM BR BKN015=



000
FTUS43 KPAH 171500 AAA
TAFCGI
TAF AMD
KCGI 171518Z 1715/1812 16004KT P6SM VCSH BKN025
     FM172200 18003KT P6SM OVC040
     FM180400 VRB02KT 5SM BR BKN015=



000
FTUS43 KPAH 171400 AAA
TAFPAH
TAF AMD
KPAH 171414Z 1714/1812 00000KT 2SM BR VV002
     FM171500 14004KT P6SM SCT120
     FM171900 20004KT P6SM VCSH BKN040
     FM180200 VRB02KT 5SM BR BKN080=



000
FTUS43 KPAH 171200 AAB
TAFPAH
TAF AMD
KPAH 171246Z 1713/1812 00000KT 1/4SM FG VV003
      TEMPO 1713/1714 2SM BR SKC
     FM171400 14004KT P6SM SCT120
     FM171900 20004KT P6SM VCSH BKN040
     FM180200 VRB02KT 5SM BR BKN080=



000
FTUS43 KPAH 171100 AAA
TAFPAH
TAF AMD
KPAH 171145Z 1712/1812 00000KT 1/4SM FG VV003
     FM171300 14004KT P6SM SCT120
     FM171900 20004KT P6SM VCSH BKN040
     FM180200 VRB02KT 5SM BR BKN080=



000
FTUS43 KPAH 171100
TAFPAH
TAF
KPAH 171128Z 1712/1812 00000KT 2SM BR MIFG SKC
     FM171300 14004KT P6SM SCT120
     FM171900 20004KT P6SM VCSH BKN040
     FM180200 VRB02KT 5SM BR BKN080=



000
FTUS43 KPAH 171100
TAFEVV
TAF
KEVV 171128Z 1712/1812 00000KT 4SM BR MIFG SKC
     FM171400 17002KT P6SM SCT150
     FM172000 VRB03KT P6SM BKN120
     FM180600 00000KT 4SM BR BKN080=



000
FTUS43 KPAH 171100
TAFCGI
TAF
KCGI 171128Z 1712/1812 00000KT 1/4SM FG VV002
     FM171300 00000KT 3SM BR SCT030
     FM171400 16004KT P6SM VCSH BKN025
     FM172200 18003KT P6SM OVC040
     FM180400 VRB02KT 5SM BR BKN015=



000
FTUS43 KPAH 170900 AAB
TAFCGI
TAF AMD
KCGI 170903Z 1709/1806 00000KT 1/4SM FG VV002
     FM171200 00000KT 1SM BR BKN030
     FM171400 10004KT P6SM VCSH OVC040
     FM172000 14004KT P6SM -SHRA BKN045=



000
FTUS43 KPAH 170600 AAA
TAFEVV
TAF AMD
KEVV 170654Z 1707/1806 00000KT 4SM BR MIFG SKC
     FM171400 00000KT P6SM SCT150
     FM172000 04004KT P6SM SCT070=



000
FTUS43 KPAH 170600 AAA
TAFCGI
TAF AMD
KCGI 170652Z 1707/1806 00000KT 1SM BR MIFG SKC
     FM171330 10004KT P6SM VCSH BKN030 OVC060
     FM172000 14004KT P6SM -SHRA BKN045=



000
FTUS43 KPAH 170500
TAFCGI
TAF
KCGI 170520Z 1706/1806 04004KT 5SM BR SKC
      TEMPO 1707/1711 3SM BR MIFG
     FM171300 10004KT P6SM VCSH BKN030 OVC060
     FM172000 14004KT P6SM -SHRA BKN045=



000
FTUS43 KPAH 170500
TAFPAH
TAF
KPAH 170520Z 1706/1806 04004KT 5SM BR MIFG SKC
     FM171430 07003KT P6SM SCT150
     FM172000 00000KT P6SM -SHRA BKN040
      TEMPO 1722/1724 -SHRA OVC030=



000
FTUS43 KPAH 170500
TAFEVV
TAF
KEVV 170520Z 1706/1806 03003KT P6SM SKC
      TEMPO 1710/1713 5SM BR
     FM171500 00000KT P6SM SCT150
     FM172000 04004KT P6SM SCT070=



000
FTUS43 KPAH 170300 AAA
TAFEVV
TAF AMD
KEVV 170358Z 1704/1724 03003KT P6SM SKC
     FM171500 00000KT P6SM SCT150
     FM172000 04004KT P6SM VCSH BKN070=



000
FTUS43 KPAH 170300 AAA
TAFEVV
TAF AMD
KEVV 170358Z 1704/1724 03003KT P6SM SKC
     FM171500 00000KT P6SM SCT150
     FM172000 04004KT P6SM VCSH BKN070=



000
FTUS43 KPAH 162300
TAFCGI
TAF
KCGI 162335Z 1700/1724 04004KT P6SM SKC
     FM171100 00000KT P6SM SKC
      TEMPO 1711/1713 4SM BR MIFG SCT030
     FM171330 15004KT P6SM VCSH BKN030 OVC060
     FM172000 17004KT P6SM -SHRA BKN035=



000
FTUS43 KPAH 162300
TAFPAH
TAF
KPAH 162335Z 1700/1724 04004KT P6SM SKC
     FM171430 14003KT P6SM SCT150
     FM171900 17004KT P6SM -SHRA BKN030
      TEMPO 1722/1724 -SHRA OVC030=



000
FTUS43 KPAH 162300
TAFEVV
TAF
KEVV 162335Z 1700/1724 03003KT P6SM BKN030
     FM171500 00000KT P6SM SCT150
     FM172000 04004KT P6SM VCSH BKN070=



000
FTUS43 KPAH 161700
TAFPAH
TAF
KPAH 161720Z 1618/1718 01010KT P6SM SCT025 BKN070
      TEMPO 1618/1621 BKN025
     FM170000 01004KT P6SM SCT070
     FM170400 00000KT P6SM SKC
      TEMPO 1708/1712 4SM BR
     FM171400 VRB03KT P6SM SCT035 BKN080=



000
FTUS43 KPAH 161700
TAFEVV
TAF
KEVV 161720Z 1618/1718 02008KT P6SM SCT015 BKN025
      TEMPO 1618/1622 BKN015
     FM162300 36003KT P6SM SCT025
     FM170200 00000KT P6SM SKC
      TEMPO 1709/1712 4SM BR
     FM171500 VRB03KT P6SM SCT030=



000
FTUS43 KPAH 161700
TAFCGI
TAF
KCGI 161720Z 1618/1718 02008KT P6SM SCT025 BKN070
      TEMPO 1618/1621 BKN025
     FM162300 01004KT P6SM SCT070
     FM170300 00000KT P6SM SKC
      TEMPO 1708/1712 4SM BR
     FM171300 VRB03KT P6SM SCT030 BKN070=



000
FTUS43 KPAH 161400 AAA
TAFEVV
TAF AMD
KEVV 161400Z 1614/1712 36008KT P6SM OVC011
      TEMPO 1614/1615 6SM BR
     FM161500 36008KT P6SM OVC015
     FM161800 01005KT P6SM BKN025
     FM170100 01002KT P6SM SKC
     FM170900 00000KT 2SM BR FEW010=



000
FTUS43 KPAH 161100
TAFEVV
TAF
KEVV 161120Z 1612/1712 36008KT P6SM OVC015
      TEMPO 1612/1613 OVC009
     FM161800 01005KT P6SM BKN025
     FM170100 01002KT P6SM SKC
     FM170900 00000KT 2SM BR FEW010=



000
FTUS43 KPAH 161100
TAFCGI
TAF
KCGI 161120Z 1612/1712 02010KT P6SM BKN014 OVC050
      TEMPO 1614/1618 SCT014 OVC050
     FM161800 02006KT P6SM BKN035
     FM170100 01002KT P6SM SKC
     FM170800 00000KT 2SM BR FEW010=



000
FTUS43 KPAH 161100
TAFPAH
TAF
KPAH 161120Z 1612/1712 36009KT P6SM OVC015
      TEMPO 1614/1618 SCT015 OVC050
     FM161800 02005KT P6SM BKN035
     FM170100 01002KT P6SM SKC
     FM170900 00000KT 2SM BR FEW010=



000
FTUS43 KPAH 160900 AAA
TAFPAH
TAF AMD
KPAH 160901Z 1609/1706 36009KT P6SM BKN012 BKN025
      TEMPO 1609/1612 OVC009
     FM161300 01007KT P6SM SCT013 BKN070
     FM161600 02005KT P6SM SKC=



000
FTUS43 KPAH 160800 AAA
TAFCGI
TAF AMD
KCGI 160858Z 1609/1706 36010KT P6SM BKN014
      TEMPO 1609/1612 SCT014 OVC050
     FM161200 01008KT P6SM SCT020 BKN060
     FM161900 02006KT P6SM SKC
     FM162230 00000KT P6SM SKC=



000
FTUS43 KPAH 160600 AAA
TAFEVV
TAF AMD
KEVV 160642Z 1607/1706 33008KT P6SM BKN007 OVC012
      TEMPO 1607/1610 6SM BR OVC012
     FM161230 34007KT P6SM OVC012
     FM161400 02005KT P6SM BKN025
     FM161800 02005KT P6SM FEW030=



000
FTUS43 KPAH 160600 AAA
TAFPAH
TAF AMD
KPAH 160639Z 1607/1706 30006KT P6SM BKN012 BKN025
      TEMPO 1607/1610 4SM BR BKN008 OVC015
     FM161130 34007KT P6SM SCT013 BKN070
     FM161600 02005KT P6SM SKC=



000
FTUS43 KPAH 160500
TAFCGI
TAF
KCGI 160520Z 1606/1706 34006KT P6SM SCT008 OVC018
      TEMPO 1606/1610 4SM BR BKN006
     FM161130 01004KT P6SM SCT020 BKN060
     FM161900 02006KT P6SM SKC
     FM162230 00000KT P6SM SKC=



000
FTUS43 KPAH 160500
TAFEVV
TAF
KEVV 160520Z 1606/1706 33005KT P6SM SCT011 OVC025
      TEMPO 1606/1610 4SM BR BKN008
     FM161230 34007KT P6SM FEW021 BKN080
     FM161400 02005KT P6SM SKC=



000
FTUS43 KPAH 160500
TAFPAH
TAF
KPAH 160520Z 1606/1706 24006KT P6SM SCT016 BKN045
      TEMPO 1606/1609 4SM BR SCT008 OVC021
     FM161130 34007KT P6SM SCT013 BKN070
     FM161600 02005KT P6SM SKC=



000
FTUS43 KPAH 160400 AAA
TAFEVV
TAF AMD
KEVV 160416Z 1604/1624 23004KT P6SM OVC025
     FM160600 33005KT P6SM SCT006 OVC017
      TEMPO 1606/1610 4SM BR BKN006
     FM161300 01006KT P6SM BKN015
     FM162100 35004KT P6SM SCT017=



000
FTUS43 KPAH 160400 AAA
TAFEVV
TAF AMD
KEVV 160416Z 1604/1624 23004KT P6SM OVC025
     FM160600 33005KT P6SM SCT006 OVC017
      TEMPO 1606/1610 4SM BR BKN006
     FM161300 01006KT P6SM BKN015
     FM162100 35004KT P6SM SCT017=



000
FTUS43 KPAH 160400 AAA
TAFCGI
TAF AMD
KCGI 160412Z 1604/1624 34005KT P6SM OVC021
     FM160530 35006KT P6SM SCT006 OVC018
      TEMPO 1606/1610 4SM BR BKN006
     FM161030 01007KT P6SM SCT015
     FM162100 02005KT P6SM SKC=



000
FTUS43 KPAH 160400 AAA
TAFCGI
TAF AMD
KCGI 160412Z 1604/1624 34005KT P6SM OVC021
     FM160530 35006KT P6SM SCT006 OVC018
      TEMPO 1606/1610 4SM BR BKN006
     FM161030 01007KT P6SM SCT015
     FM162100 02005KT P6SM SKC=



000
FTUS43 KPAH 152300
TAFCGI
TAF
KCGI 152320Z 1600/1624 23004KT P6SM VCSH SCT030 BKN060
     FM160330 34005KT P6SM SCT007 OVC035
     FM160530 35006KT P6SM SCT006 OVC018
      TEMPO 1606/1610 4SM BR BKN006
     FM161030 01007KT P6SM SCT015
     FM162100 02005KT P6SM SKC=



000
FTUS43 KPAH 152300
TAFEVV
TAF
KEVV 152320Z 1600/1624 21005KT P6SM SCT035 BKN060
     FM160130 23004KT P6SM VCSH SCT018 OVC060
     FM160600 33005KT P6SM SCT006 OVC017
      TEMPO 1606/1610 4SM BR BKN006
     FM161300 01006KT P6SM BKN015
     FM162100 35004KT P6SM SCT017=



000
FTUS43 KPAH 152300
TAFPAH
TAF
KPAH 152320Z 1600/1624 23004KT P6SM SCT060
     FM160300 28005KT P6SM VCSH SCT017 OVC050
     FM160530 34006KT P6SM SCT008 OVC021
      TEMPO 1607/1611 4SM BR BKN008
     FM161500 01007KT P6SM SCT015
     FM162300 02005KT P6SM SKC=



000
FTUS43 KPAH 151700
TAFPAH
TAF
KPAH 151720Z 1518/1618 22005KT P6SM SCT070 BKN150
      TEMPO 1518/1521 BKN070
     FM160100 23004KT P6SM VCSH SCT030 BKN060
     FM160500 34005KT P6SM SCT008 OVC012
     FM160700 35006KT P6SM SCT013 OVC020
      TEMPO 1607/1610 BKN013
     FM161600 02007KT P6SM SCT025=



000
FTUS43 KPAH 151700
TAFEVV
TAF
KEVV 151720Z 1518/1618 21005KT P6SM SCT070 BKN150
      TEMPO 1518/1521 BKN070
     FM160100 23004KT P6SM VCSH SCT025 BKN050
     FM160300 33005KT P6SM SCT008 OVC012
     FM160600 34006KT P6SM SCT013 OVC020
      TEMPO 1606/1609 BKN013
     FM161500 01006KT P6SM SCT025=



000
FTUS43 KPAH 151700
TAFCGI
TAF
KCGI 151720Z 1518/1618 21006KT P6SM SCT070 BKN150
      TEMPO 1518/1521 BKN070
     FM160000 23004KT P6SM VCSH SCT030 BKN060
     FM160400 34005KT P6SM SCT008 OVC012
     FM160600 35006KT P6SM SCT013 OVC020
      TEMPO 1606/1609 BKN013
     FM161500 02007KT P6SM SCT025=



    US Dept of Commerce
    National Oceanic and Atmospheric Administration
    National Weather Service
    1325 East West Highway
    Silver Spring, MD 20910
    Page Author: NWS Internet Services Team
Disclaimer
Information Quality
Credits
Glossary
Privacy Policy
Freedom of Information Act (FOIA)
About Us
Career Opportunities